Time;durP1;ratioP1;P1;durP2;ratioP2;P2;SDS_P1;SDS_P2;PMS_P1;PMS_P2;Temp;Humidity;BMP_temperature;BMP_pressure;BME280_temperature;BME280_humidity;BME280_pressure;Samples;Min_cycle;Max_cycle;Signal;HPM_P1;HPM_P2
2022/10/07 00:01:27;;;;;;;1.85;0.60;;;11.80;99.90;;;;;;5073759;28;20037;-73
2022/10/07 00:03:53;;;;;;;1.45;0.70;;;11.90;99.90;;;;;;5072007;28;20437;-73
2022/10/07 00:06:21;;;;;;;6.45;0.82;;;12.00;99.90;;;;;;5073544;28;20094;-71
2022/10/07 00:08:49;;;;;;;2.38;0.73;;;12.10;99.90;;;;;;5072538;28;20044;-71
2022/10/07 00:11:21;;;;;;;2.35;0.50;;;12.10;99.90;;;;;;5072256;28;20047;-71
2022/10/07 00:13:51;;;;;;;1.35;0.40;;;12.10;99.90;;;;;;5072352;28;20373;-71
2022/10/07 00:16:23;;;;;;;6.07;0.90;;;12.20;99.90;;;;;;5077461;28;20399;-72
2022/10/07 00:18:50;;;;;;;8.70;0.70;;;12.20;99.90;;;;;;5077272;28;20048;-71
2022/10/07 00:21:17;;;;;;;4.07;1.10;;;12.10;99.90;;;;;;5077270;28;20043;-73
2022/10/07 00:23:44;;;;;;;1.88;0.70;;;12.10;99.90;;;;;;5075958;28;20036;-71
2022/10/07 00:26:14;;;;;;;1.75;0.60;;;12.10;99.90;;;;;;5077176;28;20108;-72
2022/10/07 00:28:40;;;;;;;2.85;0.60;;;12.20;99.90;;;;;;5076330;28;20441;-72
2022/10/07 00:31:08;;;;;;;1.50;0.70;;;12.20;99.90;;;;;;5077204;28;20039;-71
2022/10/07 00:33:37;;;;;;;4.40;0.50;;;12.20;99.90;;;;;;5075916;28;20504;-72
2022/10/07 00:36:14;;;;;;;1.00;0.50;;;12.10;99.90;;;;;;5077092;28;20068;-71
2022/10/07 00:38:40;;;;;;;1.52;0.70;;;12.10;99.90;;;;;;5075513;28;20087;-72
2022/10/07 00:41:08;;;;;;;7.22;0.90;;;12.20;99.90;;;;;;5075684;28;20459;-71
2022/10/07 00:43:34;;;;;;;2.13;1.23;;;12.20;99.90;;;;;;5077069;28;20045;-71
2022/10/07 00:46:38;;;;;;;0.75;0.45;;;12.20;99.90;;;;;;5076990;28;20032;-71
2022/10/07 00:49:12;;;;;;;2.00;0.50;;;11.90;99.90;;;;;;5076868;28;20040;-73
2022/10/07 00:51:39;;;;;;;1.75;0.68;;;11.80;99.90;;;;;;5075686;28;20029;-71
2022/10/07 00:54:11;;;;;;;2.92;0.90;;;11.70;99.90;;;;;;5076960;28;20048;-71
2022/10/07 00:56:38;;;;;;;2.85;0.60;;;11.90;99.90;;;;;;5075571;28;20029;-71
2022/10/07 00:59:05;;;;;;;2.13;0.60;;;12.00;99.90;;;;;;5076746;28;20076;-71
2022/10/07 01:01:30;;;;;;;1.77;0.55;;;12.00;99.90;;;;;;5075358;28;20033;-73
2022/10/07 01:03:56;;;;;;;2.63;0.40;;;11.90;99.90;;;;;;5076618;28;21037;-71
2022/10/07 01:06:22;;;;;;;2.30;0.70;;;11.80;99.90;;;;;;5074703;28;20068;-72
2022/10/07 01:08:51;;;;;;;1.35;0.60;;;11.80;99.90;;;;;;5075136;28;20055;-73
2022/10/07 01:11:36;;;;;;;0.80;0.50;;;11.80;99.90;;;;;;5076583;28;20518;-71
2022/10/07 01:14:18;;;;;;;1.20;0.70;;;11.80;99.90;;;;;;5076491;28;20040;-72
2022/10/07 01:17:08;;;;;;;3.05;0.80;;;11.70;99.90;;;;;;5076472;28;20051;-72
2022/10/07 01:20:00;;;;;;;4.67;1.20;;;11.70;99.90;;;;;;5076133;28;20060;-71
2022/10/07 01:22:44;;;;;;;2.42;0.63;;;11.80;99.90;;;;;;5076120;28;20032;-71
2022/10/07 01:25:44;;;;;;;1.23;0.63;;;11.80;99.90;;;;;;5076132;28;20131;-73
2022/10/07 01:28:17;;;;;;;4.55;0.73;;;11.70;99.90;;;;;;5056806;28;20445;-72
2022/10/07 01:30:50;;;;;;;1.80;0.80;;;11.70;99.90;;;;;;5074596;28;20040;-72
2022/10/07 01:33:20;;;;;;;3.80;0.70;;;11.70;99.90;;;;;;5076175;28;20071;-71
2022/10/07 01:35:49;;;;;;;1.90;0.70;;;11.80;99.90;;;;;;5076137;28;20403;-71
2022/10/07 01:38:18;;;;;;;1.33;0.70;;;11.80;99.90;;;;;;5074610;28;20044;-72
2022/10/07 01:41:10;;;;;;;1.30;0.60;;;11.90;99.90;;;;;;5076055;28;20040;-73
2022/10/07 01:43:37;;;;;;;3.90;0.70;;;12.00;99.90;;;;;;5074297;28;20044;-70
2022/10/07 01:46:07;;;;;;;1.33;0.70;;;12.00;99.90;;;;;;5076137;28;20044;-73
2022/10/07 01:48:33;;;;;;;2.42;0.82;;;12.10;99.90;;;;;;5074463;28;20452;-71
2022/10/07 01:51:01;;;;;;;1.70;0.63;;;12.20;99.90;;;;;;5075638;28;20051;-73
2022/10/07 01:53:54;;;;;;;1.08;0.70;;;12.20;99.90;;;;;;5075719;28;20045;-70
2022/10/07 01:56:43;;;;;;;1.20;0.60;;;12.20;99.90;;;;;;5076060;28;20043;-71
2022/10/07 01:59:56;;;;;;;4.18;0.90;;;12.20;99.90;;;;;;5065313;28;20048;-71
2022/10/07 02:02:31;;;;;;;2.38;0.50;;;11.70;99.90;;;;;;5063394;28;20547;-72
2022/10/07 02:05:34;;;;;;;3.08;0.70;;;11.40;99.90;;;;;;5074441;28;20384;-70
2022/10/07 02:08:13;;;;;;;1.33;0.65;;;;;;;;;;5071004;28;20058;-73
2022/10/07 02:10:55;;;;;;;1.58;0.60;;;;;;;;;;5075313;28;20056;-70
2022/10/07 02:13:21;;;;;;;0.75;0.45;;;;;;;;;;5075194;28;20078;-72
2022/10/07 02:16:05;;;;;;;1.00;0.52;;;11.20;99.90;;;;;;5073810;28;20447;-70
2022/10/07 02:18:34;;;;;;;4.03;0.90;;;11.30;99.90;;;;;;5074954;28;20127;-73
2022/10/07 02:21:03;;;;;;;2.22;0.98;;;11.30;99.90;;;;;;5075386;28;20523;-74
2022/10/07 02:23:33;;;;;;;0.82;0.50;;;11.40;99.90;;;;;;5075154;28;20097;-71
2022/10/07 02:26:01;;;;;;;3.95;0.77;;;11.40;99.90;;;;;;5075384;28;20074;-72
2022/10/07 02:28:28;;;;;;;4.65;0.77;;;11.70;99.90;;;;;;5075067;28;20039;-71
2022/10/07 02:30:59;;;;;;;2.92;0.88;;;11.70;99.90;;;;;;5074947;28;20044;-71
2022/10/07 02:33:27;;;;;;;4.20;0.70;;;11.60;99.90;;;;;;5074861;28;20036;-74
2022/10/07 02:35:58;;;;;;;2.22;0.60;;;11.70;99.90;;;;;;5073375;28;20117;-73
2022/10/07 02:38:25;;;;;;;;;;;11.80;99.90;;;;;;5072936;28;20044;-74
2022/10/07 02:40:58;;;;;;;4.57;0.70;;;;;;;;;;5074885;28;20271;-74
2022/10/07 02:43:27;;;;;;;1.48;0.88;;;;;;;;;;5073812;28;20132;-70
2022/10/07 02:46:04;;;;;;;2.35;0.80;;;11.90;99.90;;;;;;5074767;28;20373;-74
2022/10/07 02:48:44;;;;;;;1.70;0.57;;;11.90;99.90;;;;;;5074784;28;20089;-72
2022/10/07 02:51:17;;;;;;;2.72;0.65;;;11.80;99.90;;;;;;5074716;28;20040;-73
2022/10/07 02:53:45;;;;;;;1.98;0.80;;;11.70;99.90;;;;;;5074483;28;20182;-72
2022/10/07 02:56:12;;;;;;;2.65;0.60;;;11.70;99.90;;;;;;5073141;28;20161;-74
2022/10/07 02:58:44;;;;;;;2.90;0.50;;;11.80;99.90;;;;;;5070820;28;20124;-71
2022/10/07 03:01:16;;;;;;;2.88;0.95;;;11.80;99.90;;;;;;5055135;28;20029;-72
2022/10/07 03:03:43;;;;;;;1.55;0.60;;;11.80;99.90;;;;;;5052107;28;20362;-71
2022/10/07 03:06:17;;;;;;;0.60;0.50;;;11.90;99.90;;;;;;5054186;28;20126;-73
2022/10/07 03:08:43;;;;;;;3.55;0.70;;;11.80;99.90;;;;;;5054417;28;20076;-74
2022/10/07 03:11:09;;;;;;;2.83;0.70;;;11.90;99.90;;;;;;5054408;28;20032;-70
2022/10/07 03:13:35;;;;;;;2.80;0.70;;;12.00;99.90;;;;;;5054374;28;20120;-74
2022/10/07 03:16:04;;;;;;;2.33;0.75;;;12.10;99.90;;;;;;5054236;28;20090;-72
2022/10/07 03:18:30;;;;;;;0.70;0.60;;;12.30;99.90;;;;;;5052851;28;20045;-71
2022/10/07 03:20:58;;;;;;;2.58;0.82;;;11.90;99.90;;;;;;5054023;28;20095;-72
2022/10/07 03:23:27;;;;;;;2.95;0.80;;;11.70;99.90;;;;;;5054224;28;20530;-74
2022/10/07 03:25:55;;;;;;;2.08;0.93;;;11.70;99.90;;;;;;5052865;28;20044;-74
2022/10/07 03:28:22;;;;;;;3.15;0.80;;;11.80;99.90;;;;;;5054246;28;20405;-72
2022/10/07 03:30:49;;;;;;;2.10;0.80;;;12.00;99.90;;;;;;5053897;28;20082;-70
2022/10/07 03:33:16;;;;;;;1.50;0.52;;;12.10;99.90;;;;;;5053888;28;20041;-73
2022/10/07 03:35:42;;;;;;;2.63;0.88;;;;;;;;;;5052248;28;20129;-73
2022/10/07 03:38:09;;;;;;;3.38;1.02;;;12.20;99.90;;;;;;5053550;28;20080;-72
2022/10/07 03:40:38;;;;;;;2.03;0.80;;;12.20;99.90;;;;;;5052778;28;20029;-71
2022/10/07 03:43:05;;;;;;;4.03;0.70;;;12.50;99.90;;;;;;5052479;28;20124;-72
2022/10/07 03:45:30;;;;;;;6.75;0.70;;;12.40;99.90;;;;;;5052805;28;20078;-72
2022/10/07 03:47:57;;;;;;;2.15;0.63;;;12.30;99.90;;;;;;5054176;28;20041;-72
2022/10/07 03:50:23;;;;;;;0.50;0.32;;;12.20;99.90;;;;;;5052247;28;20057;-74
2022/10/07 03:52:49;;;;;;;2.03;0.60;;;12.20;99.90;;;;;;5053899;28;20626;-73
2022/10/07 03:55:15;;;;;;;2.10;0.80;;;12.20;99.90;;;;;;5059551;28;20087;-73
2022/10/07 03:57:52;;;;;;;1.45;0.70;;;12.20;99.90;;;;;;5073857;28;20055;-72
2022/10/07 04:00:20;;;;;;;3.88;0.85;;;12.10;99.90;;;;;;5073675;28;20396;-72
2022/10/07 04:02:47;;;;;;;4.75;0.68;;;11.90;99.90;;;;;;5073604;28;20124;-71
2022/10/07 04:05:18;;;;;;;2.47;0.80;;;11.90;99.90;;;;;;5073647;28;20090;-74
2022/10/07 04:07:45;;;;;;;;;;;11.80;99.90;;;;;;5072990;28;20036;-71
2022/10/07 04:10:13;;;;;;;2.38;0.95;;;11.80;99.90;;;;;;5073499;28;20360;-73
2022/10/07 04:12:39;;;;;;;5.13;1.02;;;11.90;99.90;;;;;;5072261;28;20051;-73
2022/10/07 04:15:05;;;;;;;4.00;0.80;;;12.00;99.90;;;;;;5072530;28;20033;-73
2022/10/07 04:17:31;;;;;;;3.20;0.90;;;11.90;99.90;;;;;;5073492;28;20065;-71
2022/10/07 04:19:57;;;;;;;3.20;0.73;;;12.00;99.90;;;;;;5072409;28;20048;-71
2022/10/07 04:22:23;;;;;;;2.75;0.70;;;11.90;99.90;;;;;;5072270;28;20028;-73
2022/10/07 04:27:37;;;;;;;5.15;1.35;;;12.10;99.90;;;;;;5073377;28;20093;-72
2022/10/07 04:30:03;;;;;;;1.88;0.82;;;12.20;99.90;;;;;;5073571;28;20037;-71
2022/10/07 04:32:30;;;;;;;3.25;1.00;;;12.20;99.90;;;;;;5073555;28;20044;-71
2022/10/07 04:34:56;;;;;;;4.05;0.80;;;12.10;99.90;;;;;;5073457;28;20040;-73
2022/10/07 04:37:22;;;;;;;2.03;1.00;;;11.90;99.90;;;;;;5073556;28;20201;-73
2022/10/07 04:39:47;;;;;;;2.10;1.00;;;11.90;99.90;;;;;;5072084;28;20543;-72
2022/10/07 04:43:18;;;;;;;4.43;1.08;;;11.90;99.90;;;;;;5073277;28;20117;-72
2022/10/07 04:44:59;;;;;;;2.15;0.90;;;11.90;99.90;;;;;;5073183;28;20450;-72
2022/10/07 04:47:25;;;;;;;2.25;1.50;;;12.00;99.90;;;;;;5073258;28;20033;-72
2022/10/07 04:49:52;;;;;;;4.28;1.42;;;12.00;99.90;;;;;;5073096;28;20033;-70
2022/10/07 04:52:19;;;;;;;5.82;1.05;;;12.00;99.90;;;;;;5073264;28;20442;-74
2022/10/07 04:54:45;;;;;;;5.13;0.80;;;12.00;99.90;;;;;;5072462;28;20072;-71
2022/10/07 04:57:12;;;;;;;2.30;0.90;;;12.00;99.90;;;;;;5073017;28;20041;-74
2022/10/07 04:59:39;;;;;;;2.60;0.88;;;12.00;99.90;;;;;;5071873;28;20048;-71
2022/10/07 05:02:05;;;;;;;1.60;0.85;;;11.90;99.90;;;;;;5073502;28;20047;-70
2022/10/07 05:04:31;;;;;;;2.47;0.90;;;11.90;99.90;;;;;;5076706;28;20487;-74
2022/10/07 05:06:56;;;;;;;2.95;0.85;;;12.00;99.90;;;;;;5076710;28;20037;-71
2022/10/07 05:09:22;;;;;;;3.10;1.10;;;12.00;99.90;;;;;;5075034;28;20513;-75
2022/10/07 05:11:51;;;;;;;3.65;0.93;;;11.80;99.90;;;;;;5075020;28;20036;-74
2022/10/07 05:14:20;;;;;;;3.20;1.00;;;11.80;99.90;;;;;;5075544;28;20490;-73
2022/10/07 05:16:47;;;;;;;2.08;0.80;;;11.60;99.90;;;;;;5076432;28;20049;-71
2022/10/07 05:19:13;;;;;;;2.22;1.50;;;11.70;99.90;;;;;;5076435;28;20080;-69
2022/10/07 05:21:38;;;;;;;4.00;0.82;;;11.90;99.90;;;;;;5076500;28;20079;-71
2022/10/07 05:24:04;;;;;;;3.65;0.88;;;11.80;99.90;;;;;;5075011;28;20113;-72
2022/10/07 05:26:30;;;;;;;5.05;0.95;;;11.90;99.90;;;;;;5076338;28;20041;-73
2022/10/07 05:28:56;;;;;;;1.58;0.70;;;11.90;99.90;;;;;;5074974;28;20052;-74
2022/10/07 05:31:22;;;;;;;1.48;0.82;;;11.70;99.90;;;;;;5074418;28;20029;-71
2022/10/07 05:33:50;;;;;;;3.25;0.75;;;11.50;99.90;;;;;;5075232;28;20032;-71
2022/10/07 05:36:18;;;;;;;2.38;0.93;;;11.40;99.90;;;;;;5074254;28;20047;-72
2022/10/07 05:38:44;;;;;;;1.13;0.65;;;11.30;99.90;;;;;;5072019;28;20494;-72
2022/10/07 05:41:11;;;;;;;3.53;0.75;;;11.30;99.90;;;;;;5072537;28;20089;-71
2022/10/07 05:43:40;;;;;;;1.27;0.80;;;11.40;99.90;;;;;;5072622;28;20125;-72
2022/10/07 05:46:12;;;;;;;2.95;0.80;;;11.40;99.90;;;;;;5074484;28;20044;-75
2022/10/07 05:48:38;;;;;;;3.00;1.13;;;11.30;99.90;;;;;;5075583;28;20532;-73
2022/10/07 05:51:05;;;;;;;3.88;0.60;;;11.30;99.90;;;;;;5075064;28;20396;-73
2022/10/07 05:53:31;;;;;;;1.95;0.80;;;11.40;99.90;;;;;;5073940;28;20028;-71
2022/10/07 05:55:57;;;;;;;2.53;0.73;;;11.40;99.90;;;;;;5074477;28;20036;-72
2022/10/07 05:58:23;;;;;;;1.60;0.73;;;11.40;99.90;;;;;;5075015;28;20101;-71
2022/10/07 06:00:57;;;;;;;3.55;0.90;;;11.40;99.90;;;;;;5074199;28;20114;-72
2022/10/07 06:03:24;;;;;;;4.35;1.00;;;11.30;99.90;;;;;;5074162;28;20036;-73
2022/10/07 06:05:51;;;;;;;2.95;0.85;;;11.30;99.90;;;;;;5074344;28;20408;-73
2022/10/07 06:08:18;;;;;;;2.63;1.42;;;11.40;99.90;;;;;;5074866;28;20032;-73
2022/10/07 06:13:30;;;;;;;6.90;1.27;;;11.50;99.90;;;;;;5075117;28;20047;-74
2022/10/07 06:16:01;;;;;;;2.00;1.10;;;11.60;99.90;;;;;;5075035;28;20062;-75
2022/10/07 06:18:26;;;;;;;2.88;1.27;;;11.70;99.90;;;;;;5073787;28;20041;-75
2022/10/07 06:20:57;;;;;;;8.77;1.88;;;11.70;99.90;;;;;;5073840;28;20036;-74
2022/10/07 06:23:23;;;;;;;3.83;1.30;;;11.80;99.90;;;;;;5075145;28;20399;-74
2022/10/07 06:26:10;;;;;;;2.72;1.10;;;11.80;99.90;;;;;;5075157;28;20031;-75
2022/10/07 06:28:38;;;;;;;5.22;1.45;;;11.80;99.90;;;;;;5074941;28;20044;-75
2022/10/07 06:31:06;;;;;;;4.13;1.10;;;11.80;99.90;;;;;;5075077;28;20496;-75
2022/10/07 06:33:32;;;;;;;3.92;1.10;;;12.00;99.90;;;;;;5073909;28;20077;-73
2022/10/07 06:36:06;;;;;;;4.07;1.08;;;12.00;99.90;;;;;;5074126;28;20033;-74
2022/10/07 06:38:32;;;;;;;4.05;1.20;;;12.00;99.90;;;;;;5072784;28;20060;-73
2022/10/07 06:41:03;;;;;;;4.10;1.00;;;12.30;99.90;;;;;;5074660;28;20028;-71
2022/10/07 06:43:32;;;;;;;6.78;1.33;;;12.30;99.90;;;;;;5075149;28;20553;-74
2022/10/07 06:46:01;;;;;;;1.80;0.85;;;12.30;99.90;;;;;;5073345;28;20123;-72
2022/10/07 06:48:31;;;;;;;2.67;1.15;;;12.20;99.90;;;;;;5074602;28;20051;-74
2022/10/07 06:50:58;;;;;;;2.10;0.95;;;12.30;99.90;;;;;;5074700;28;20039;-74
2022/10/07 06:53:25;;;;;;;2.90;0.93;;;12.30;99.90;;;;;;5073400;28;20127;-75
2022/10/07 06:55:53;;;;;;;2.53;0.98;;;12.40;99.90;;;;;;5072817;28;20557;-73
2022/10/07 06:58:23;;;;;;;1.67;1.15;;;12.40;99.90;;;;;;5074327;28;20056;-73
2022/10/07 07:00:49;;;;;;;4.25;1.10;;;12.40;99.90;;;;;;5072954;28;20033;-75
2022/10/07 07:03:16;;;;;;;4.80;1.48;;;;;;;;;;5071195;28;20131;-74
2022/10/07 07:05:43;;;;;;;3.05;1.90;;;12.60;99.90;;;;;;5059564;28;20511;-73
2022/10/07 07:08:10;;;;;;;6.13;2.00;;;12.60;99.90;;;;;;5052412;28;20041;-73
2022/10/07 07:10:38;;;;;;;4.85;2.30;;;12.80;99.90;;;;;;5051483;28;20067;-73
2022/10/07 07:13:07;;;;;;;7.18;2.70;;;12.90;99.90;;;;;;5054396;28;20091;-74
2022/10/07 07:15:34;;;;;;;5.25;1.98;;;12.80;99.90;;;;;;5053196;28;20461;-74
2022/10/07 07:18:01;;;;;;;6.03;2.00;;;12.80;99.90;;;;;;5051554;28;20050;-74
2022/10/07 07:20:33;;;;;;;3.38;1.83;;;12.80;99.90;;;;;;5052353;28;20053;-73
2022/10/07 07:23:00;;;;;;;3.97;1.80;;;12.80;99.90;;;;;;5054125;28;20032;-73
2022/10/07 07:25:27;;;;;;;4.88;1.30;;;12.90;99.90;;;;;;5050400;28;20133;-74
2022/10/07 07:27:54;;;;;;;4.90;1.65;;;12.90;99.90;;;;;;5061153;28;20056;-73
2022/10/07 07:30:22;;;;;;;2.25;1.38;;;12.90;99.90;;;;;;5054508;28;20094;-74
2022/10/07 07:32:48;;;;;;;1.98;1.13;;;12.80;99.90;;;;;;5053107;28;20091;-73
2022/10/07 07:35:14;;;;;;;2.08;1.00;;;12.80;99.90;;;;;;5071301;28;20507;-73
2022/10/07 07:37:40;;;;;;;5.60;1.35;;;12.80;99.90;;;;;;5072502;28;20043;-73
2022/10/07 07:40:07;;;;;;;3.92;1.27;;;12.90;99.90;;;;;;5072876;28;20048;-73
2022/10/07 07:42:36;;;;;;;4.15;1.35;;;13.00;99.90;;;;;;5071305;28;20064;-73
2022/10/07 07:45:02;;;;;;;4.10;1.95;;;;;;;;;;5072076;28;20056;-74
2022/10/07 07:47:28;;;;;;;6.57;1.55;;;13.00;99.90;;;;;;5072871;28;20069;-73
2022/10/07 07:49:54;;;;;;;2.78;1.30;;;;;;;;;;5073785;28;20127;-72
2022/10/07 07:52:21;;;;;;;6.13;1.63;;;13.40;99.90;;;;;;5072112;28;20036;-73
2022/10/07 07:54:47;;;;;;;3.70;1.60;;;14.30;99.90;;;;;;5073994;28;20036;-74
2022/10/07 07:57:13;;;;;;;5.28;1.80;;;14.30;99.90;;;;;;5072491;28;20481;-74
2022/10/07 07:59:39;;;;;;;3.95;1.73;;;14.70;99.90;;;;;;5073755;28;20054;-74
2022/10/07 08:02:05;;;;;;;4.53;1.38;;;15.00;99.90;;;;;;5072237;28;20067;-73
2022/10/07 08:04:31;;;;;;;4.63;1.38;;;15.40;99.90;;;;;;5073160;28;20044;-73
2022/10/07 08:06:56;;;;;;;3.53;1.30;;;15.50;99.90;;;;;;5072414;28;20483;-73
2022/10/07 08:09:23;;;;;;;5.85;1.45;;;15.60;99.90;;;;;;5072273;28;20526;-73
2022/10/07 08:11:49;;;;;;;4.80;1.27;;;15.60;99.90;;;;;;5073334;28;20048;-73
2022/10/07 08:14:16;;;;;;;1.98;1.20;;;15.80;99.90;;;;;;5073535;28;20044;-73
2022/10/07 08:16:42;;;;;;;2.50;1.55;;;16.10;99.90;;;;;;5072465;28;20071;-73
2022/10/07 08:19:10;;;;;;;2.13;1.23;;;16.30;99.90;;;;;;5073461;28;20061;-73
2022/10/07 08:21:35;;;;;;;3.80;1.27;;;16.40;99.90;;;;;;5073638;28;20182;-73
2022/10/07 08:24:04;;;;;;;3.42;1.67;;;16.70;99.90;;;;;;5073508;28;20072;-73
2022/10/07 08:26:32;;;;;;;3.85;1.70;;;16.70;99.90;;;;;;5073274;28;20044;-73
2022/10/07 08:28:59;;;;;;;4.10;1.50;;;16.90;99.90;;;;;;5073417;28;20048;-74
2022/10/07 08:31:26;;;;;;;3.72;1.33;;;17.00;99.90;;;;;;5072162;28;20035;-74
2022/10/07 08:33:54;;;;;;;11.77;1.95;;;16.90;99.90;;;;;;5072247;28;20042;-73
2022/10/07 08:36:21;;;;;;;3.35;1.30;;;17.10;99.90;;;;;;5074037;28;20408;-73
2022/10/07 08:38:48;;;;;;;2.38;1.20;;;17.10;99.90;;;;;;5077044;28;20040;-74
2022/10/07 08:41:37;;;;;;;5.60;1.52;;;17.10;99.90;;;;;;5076979;28;20500;-73
2022/10/07 08:44:31;;;;;;;3.22;1.35;;;17.40;99.90;;;;;;5077075;28;20554;-73
2022/10/07 08:47:02;;;;;;;3.05;1.38;;;17.10;99.90;;;;;;5077235;28;20055;-74
2022/10/07 08:49:38;;;;;;;2.85;1.40;;;17.40;99.90;;;;;;5075315;28;20044;-73
2022/10/07 08:52:24;;;;;;;5.88;1.33;;;17.60;99.90;;;;;;5075584;28;20033;-74
2022/10/07 08:54:51;;;;;;;4.57;1.23;;;17.70;99.90;;;;;;5070526;28;20084;-74
2022/10/07 08:57:41;;;;;;;2.70;1.50;;;17.90;99.90;;;;;;5063243;28;20534;-74
2022/10/07 09:00:12;;;;;;;5.60;1.63;;;18.10;99.90;;;;;;5056963;28;20052;-73
2022/10/07 09:03:04;;;;;;;2.92;1.45;;;18.20;99.90;;;;;;5056741;28;20070;-73
2022/10/07 09:05:39;;;;;;;5.30;1.52;;;18.30;99.90;;;;;;5056546;28;20045;-74
2022/10/07 09:08:27;;;;;;;4.38;1.60;;;17.80;99.90;;;;;;5056625;28;20128;-73
2022/10/07 09:10:57;;;;;;;8.63;1.70;;;17.70;99.90;;;;;;5055234;28;20048;-73
2022/10/07 09:13:28;;;;;;;9.48;1.50;;;17.70;99.90;;;;;;5055176;28;20044;-73
2022/10/07 09:16:12;;;;;;;6.80;1.38;;;17.80;99.90;;;;;;5056612;28;20041;-73
2022/10/07 09:18:52;;;;;;;2.40;1.30;;;18.10;99.90;;;;;;5055241;28;20084;-73
2022/10/07 09:21:25;;;;;;;4.78;1.42;;;18.30;99.90;;;;;;5056364;28;20047;-73
2022/10/07 09:24:00;;;;;;;2.63;1.73;;;18.50;99.90;;;;;;5055259;28;20053;-74
2022/10/07 09:26:26;;;;;;;4.57;1.58;;;18.70;99.90;;;;;;5056238;28;20045;-73
2022/10/07 09:28:52;;;;;;;4.22;1.70;;;;;;;;;;5056222;28;20045;-74
2022/10/07 09:31:22;;;;;;;3.42;1.40;;;19.20;99.90;;;;;;5056249;28;20040;-76
2022/10/07 09:33:51;;;;;;;5.25;1.40;;;;;;;;;;5056096;28;20099;-73
2022/10/07 09:36:17;;;;;;;10.18;3.15;;;19.20;99.90;;;;;;5056189;28;20123;-74
2022/10/07 09:38:47;;;;;;;8.05;2.10;;;19.00;99.90;;;;;;5056001;28;20377;-73
2022/10/07 09:41:19;;;;;;;7.40;2.20;;;18.90;99.90;;;;;;5056243;28;20120;-73
2022/10/07 09:43:56;;;;;;;6.03;2.08;;;19.00;99.90;;;;;;5056103;28;20048;-73
2022/10/07 09:46:35;;;;;;;10.18;2.45;;;18.80;99.90;;;;;;5055873;28;20036;-72
2022/10/07 09:49:03;;;;;;;6.05;2.20;;;18.90;99.90;;;;;;5054541;28;20086;-71
2022/10/07 09:51:31;;;;;;;6.72;2.55;;;19.10;99.90;;;;;;5055002;28;20048;-72
2022/10/07 09:54:04;;;;;;;6.65;2.30;;;19.00;99.90;;;;;;5055883;28;20037;-75
2022/10/07 09:56:39;;;;;;;13.98;2.72;;;18.90;99.90;;;;;;5067878;28;20089;-76
2022/10/07 09:59:27;;;;;;;4.22;1.95;;;19.10;99.90;;;;;;5073030;28;20120;-73
2022/10/07 10:01:55;;;;;;;8.75;2.80;;;18.70;99.90;;;;;;5071222;28;20028;-73
2022/10/07 10:04:29;;;;;;;5.25;1.90;;;18.90;99.90;;;;;;5073133;28;20441;-73
2022/10/07 10:07:00;;;;;;;3.70;2.25;;;19.00;99.90;;;;;;5071037;28;20039;-73
2022/10/07 10:09:26;;;;;;;3.58;2.13;;;19.00;99.90;;;;;;5073023;28;20048;-74
2022/10/07 10:12:12;;;;;;;11.30;2.60;;;19.10;99.90;;;;;;5072097;28;20071;-72
2022/10/07 10:14:51;;;;;;;4.35;2.45;;;18.60;99.90;;;;;;5071427;28;20082;-75
2022/10/07 10:17:26;;;;;;;10.48;2.75;;;18.70;99.90;;;;;;5073901;28;20118;-74
2022/10/07 10:19:51;;;;;;;7.28;2.72;;;19.10;99.90;;;;;;5075128;28;20055;-72
2022/10/07 10:22:29;;;;;;;9.57;2.33;;;19.10;99.90;;;;;;5075415;28;20036;-72
2022/10/07 10:28:13;;;;;;;14.05;2.78;;;18.80;99.90;;;;;;5075121;28;20435;-73
2022/10/07 10:30:58;;;;;;;7.13;2.97;;;19.40;99.90;;;;;;5075070;28;20369;-71
2022/10/07 10:33:42;;;;;;;7.80;2.38;;;19.40;99.90;;;;;;5073886;28;20040;-72
2022/10/07 10:36:20;;;;;;;7.38;2.30;;;19.60;99.90;;;;;;5075040;28;20036;-72
2022/10/07 10:39:00;;;;;;;5.22;2.13;;;19.40;99.90;;;;;;5074919;28;20491;-73
2022/10/07 10:41:45;;;;;;;3.17;1.73;;;19.50;99.90;;;;;;5075189;28;20100;-73
2022/10/07 10:44:39;;;;;;;6.55;2.13;;;19.80;99.90;;;;;;5074919;28;20161;-73
2022/10/07 10:47:28;;;;;;;5.53;2.25;;;19.80;99.90;;;;;;5073915;28;20036;-74
2022/10/07 10:50:12;;;;;;;4.97;2.10;;;19.80;99.90;;;;;;5074743;28;20094;-75
2022/10/07 10:52:55;;;;;;;4.35;2.00;;;19.70;99.90;;;;;;5074358;28;20044;-72
2022/10/07 10:55:24;;;;;;;6.03;2.13;;;19.60;99.90;;;;;;5072992;28;20406;-74
2022/10/07 10:58:05;;;;;;;8.05;2.38;;;19.30;99.90;;;;;;5074723;28;20479;-72
2022/10/07 11:00:44;;;;;;;5.22;1.83;;;19.20;99.90;;;;;;5073840;28;20040;-71
2022/10/07 11:03:16;;;;;;;4.55;2.13;;;19.40;99.90;;;;;;5074544;28;20123;-70
2022/10/07 11:05:42;;;;;;;6.63;2.17;;;19.40;99.90;;;;;;5074495;28;20047;-74
2022/10/07 11:08:41;;;;;;;7.63;2.47;;;19.40;99.90;;;;;;5074531;28;20036;-71
2022/10/07 11:11:20;;;;;;;6.38;2.92;;;19.50;99.90;;;;;;5072895;28;20170;-70
2022/10/07 11:14:00;;;;;;;3.55;2.38;;;19.40;99.90;;;;;;5074242;28;20090;-70
2022/10/07 11:16:41;;;;;;;4.43;1.98;;;19.50;99.90;;;;;;5074354;28;20044;-71
2022/10/07 11:19:34;;;;;;;2.72;1.65;;;19.80;99.90;;;;;;5074283;28;20131;-71
2022/10/07 11:22:01;;;;;;;3.70;1.83;;;20.00;99.90;;;;;;5070153;28;20036;-71
2022/10/07 11:24:41;;;;;;;4.50;1.95;;;20.30;99.90;;;;;;5074021;28;20036;-71
2022/10/07 11:27:17;;;;;;;4.93;1.60;;;20.60;99.90;;;;;;5074206;28;20119;-71
2022/10/07 11:29:52;;;;;;;5.30;1.58;;;20.40;99.90;;;;;;5074175;28;20271;-71
2022/10/07 11:32:29;;;;;;;6.20;2.38;;;20.40;99.90;;;;;;5072903;28;20066;-72
2022/10/07 11:35:13;;;;;;;3.90;2.10;;;20.30;99.90;;;;;;5072711;28;20521;-72
2022/10/07 11:38:13;;;;;;;6.18;1.85;;;20.20;99.90;;;;;;5073861;28;20050;-72
2022/10/07 11:41:02;;;;;;;6.35;2.08;;;20.20;99.90;;;;;;5073376;28;20109;-72
2022/10/07 11:43:55;;;;;;;2.78;1.83;;;20.20;99.90;;;;;;5073959;28;20036;-72
2022/10/07 11:46:30;;;;;;;8.50;1.73;;;20.00;99.90;;;;;;5070864;28;20068;-72
2022/10/07 11:49:13;;;;;;;4.60;2.10;;;20.00;99.90;;;;;;5057313;28;20041;-72
2022/10/07 11:52:00;;;;;;;3.90;1.92;;;19.80;99.90;;;;;;5050629;28;20132;-73
2022/10/07 11:54:30;;;;;;;4.80;2.20;;;20.10;99.90;;;;;;5052541;28;20512;-72
2022/10/07 11:56:59;;;;;;;3.63;1.77;;;20.20;99.90;;;;;;5051316;28;20119;-72
2022/10/07 11:59:35;;;;;;;7.28;2.10;;;20.20;99.90;;;;;;5051341;28;20044;-72
2022/10/07 12:02:03;;;;;;;7.38;1.50;;;20.00;99.90;;;;;;5053717;28;20095;-71
2022/10/07 12:04:28;;;;;;;6.32;2.13;;;20.10;99.90;;;;;;5057660;28;20450;-73
2022/10/07 12:07:34;;;;;;;3.35;2.03;;;20.30;99.90;;;;;;5071993;28;20036;-71
2022/10/07 12:10:00;;;;;;;5.30;2.08;;;20.20;99.90;;;;;;5072344;28;20178;-70
2022/10/07 12:12:41;;;;;;;2.28;1.48;;;20.20;99.90;;;;;;5077233;28;20032;-71
2022/10/07 12:15:33;;;;;;;4.57;2.13;;;20.60;99.90;;;;;;5075218;28;20072;-71
2022/10/07 12:18:05;;;;;;;6.22;2.15;;;20.80;99.90;;;;;;5077188;28;20491;-72
2022/10/07 12:20:34;;;;;;;11.52;2.45;;;20.80;99.90;;;;;;5075767;28;20499;-72
2022/10/07 12:23:24;;;;;;;5.03;1.70;;;20.50;99.90;;;;;;5075898;28;20042;-73
2022/10/07 12:25:58;;;;;;;4.32;1.80;;;20.50;99.90;;;;;;5070181;28;20044;-73
2022/10/07 12:28:33;;;;;;;3.10;1.83;;;20.70;99.90;;;;;;5073690;28;20496;-73
2022/10/07 12:31:03;;;;;;;2.47;1.60;;;;;;;;;;5075485;28;20076;-72
2022/10/07 12:33:45;;;;;;;4.40;1.75;;;21.40;99.90;;;;;;5074654;28;20090;-71
2022/10/07 12:36:22;;;;;;;5.38;2.13;;;21.40;99.90;;;;;;5075476;28;20072;-72
2022/10/07 12:39:00;;;;;;;5.05;1.45;;;21.10;99.90;;;;;;5075561;28;20058;-72
2022/10/07 12:41:29;;;;;;;3.20;1.55;;;21.10;99.90;;;;;;5075053;28;20041;-72
2022/10/07 12:44:17;;;;;;;3.88;1.63;;;21.30;99.90;;;;;;5074700;28;20098;-72
2022/10/07 12:46:55;;;;;;;10.88;2.00;;;20.90;99.90;;;;;;5074306;28;20480;-71
2022/10/07 12:49:42;;;;;;;2.90;1.65;;;20.90;99.90;;;;;;5073704;28;20400;-72
2022/10/07 12:52:18;;;;;;;4.18;1.10;;;21.00;99.90;;;;;;5073352;28;20036;-72
2022/10/07 12:54:55;;;;;;;4.00;2.00;;;20.80;99.90;;;;;;5074568;28;20470;-71
2022/10/07 12:57:25;;;;;;;9.88;1.80;;;21.00;99.90;;;;;;5074286;28;20044;-73
2022/10/07 13:00:16;;;;;;;7.45;1.80;;;21.40;99.90;;;;;;5075590;28;20105;-72
2022/10/07 13:02:54;;;;;;;2.97;1.73;;;21.40;99.90;;;;;;5074638;28;20049;-73
2022/10/07 13:05:44;;;;;;;2.58;1.58;;;21.30;99.90;;;;;;5075667;28;20043;-71
2022/10/07 13:08:35;;;;;;;11.27;2.20;;;21.10;99.90;;;;;;5076467;28;20071;-71
2022/10/07 13:11:12;;;;;;;6.38;1.50;;;21.00;99.90;;;;;;5075655;28;20047;-71
2022/10/07 13:14:06;;;;;;;5.20;1.63;;;20.90;99.90;;;;;;5074258;28;20040;-70
2022/10/07 13:16:42;;;;;;;4.60;1.55;;;21.20;99.90;;;;;;5073475;28;20119;-71
2022/10/07 13:19:29;;;;;;;5.57;1.60;;;21.00;99.90;;;;;;5074291;28;20047;-71
2022/10/07 13:21:57;;;;;;;8.40;2.38;;;21.00;99.90;;;;;;5074272;28;20038;-70
2022/10/07 13:24:25;;;;;;;3.05;1.48;;;20.90;99.90;;;;;;5074977;28;20044;-70
2022/10/07 13:26:51;;;;;;;3.47;1.58;;;20.60;99.90;;;;;;5073797;28;20031;-69